createdAt,value
2019-03-24T11:20:56.811Z,100536.02
2019-03-24T11:23:26.420Z,100531.54
2019-03-24T11:25:56.030Z,100539.97
2019-03-24T11:28:25.593Z,100538.67
2019-03-24T11:30:55.169Z,100527.67
2019-03-24T11:33:24.864Z,100526.95
2019-03-24T11:35:54.434Z,100520.52
2019-03-24T11:38:24.038Z,100522.45
2019-03-24T11:40:53.935Z,100520.45
2019-03-24T11:43:23.726Z,100514.11
2019-03-24T11:45:54.349Z,100514.76
2019-03-24T11:48:23.918Z,100511.84
2019-03-24T11:50:53.531Z,100505.13
2019-03-24T11:53:23.175Z,100500.18
2019-03-24T11:55:52.739Z,100488.44
2019-03-24T11:58:22.350Z,100492.95
2019-03-24T12:00:51.912Z,100495.61
2019-03-24T12:03:21.474Z,100480.98
2019-03-24T12:05:51.090Z,100474.09
2019-03-24T12:08:20.647Z,100474.29
2019-03-24T12:10:50.414Z,100472.59
2019-03-24T12:13:20.017Z,100469.00
2019-03-24T12:15:49.592Z,100472.91
2019-03-24T12:18:19.209Z,100452.17
2019-03-24T12:20:48.777Z,100453.25
2019-03-24T12:23:20.938Z,100457.52
2019-03-24T12:25:49.680Z,100440.58
2019-03-24T12:28:45.264Z,100440.03
2019-03-24T12:31:19.162Z,100447.00
2019-03-24T12:33:51.524Z,100441.94
2019-03-24T12:36:23.814Z,100445.56
2019-03-24T12:38:56.018Z,100438.22
2019-03-24T12:41:28.367Z,100436.59
2019-03-24T12:44:04.646Z,100440.34
2019-03-24T12:46:36.881Z,100431.63
2019-03-24T12:49:09.058Z,100428.64
2019-03-24T12:51:41.314Z,100426.61
2019-03-24T12:54:13.533Z,100423.83
2019-03-24T12:56:48.073Z,100421.88
2019-03-24T12:59:21.353Z,100425.11
2019-03-24T13:01:54.416Z,100413.72
2019-03-24T13:04:27.634Z,100414.25
2019-03-24T13:06:59.885Z,100407.63
2019-03-24T13:09:33.767Z,100405.83
2019-03-24T13:12:06.099Z,100401.05
2019-03-24T13:14:38.336Z,100401.78
2019-03-24T13:17:10.520Z,100395.81
2019-03-24T13:19:42.802Z,100388.69
2019-03-24T13:22:15.454Z,100388.05
2019-03-24T13:24:47.720Z,100379.39
2019-03-24T13:27:19.977Z,100390.86
2019-03-24T13:29:53.453Z,100371.80
2019-03-24T13:32:25.695Z,100362.65
2019-03-24T13:34:57.927Z,100360.28
2019-03-24T13:37:30.883Z,100362.50
2019-03-24T13:40:03.090Z,100355.05
2019-03-24T13:42:35.276Z,100355.42
2019-03-24T13:45:07.809Z,100355.92
2019-03-24T13:47:40.423Z,100351.83
2019-03-24T13:50:12.627Z,100344.92
2019-03-24T13:52:44.939Z,100339.16
2019-03-24T13:55:17.275Z,100341.38
2019-03-24T13:57:49.598Z,100338.28
2019-03-24T14:00:21.787Z,100334.95
2019-03-24T14:02:54.315Z,100334.39
2019-03-24T14:05:27.679Z,100334.23
2019-03-24T14:08:00.574Z,100330.33
2019-03-24T14:10:34.084Z,100332.02
2019-03-24T14:13:06.349Z,100327.48
2019-03-24T14:15:38.572Z,100326.14
2019-03-24T14:18:10.744Z,100323.91
2019-03-24T14:20:43.980Z,100316.45
2019-03-24T14:23:16.477Z,100321.19
2019-03-24T14:25:48.669Z,100316.98
2019-03-24T14:28:20.883Z,100318.14
2019-03-24T14:30:53.052Z,100320.01
2019-03-24T14:33:25.278Z,100314.95
2019-03-24T14:35:57.494Z,100314.60
2019-03-24T14:38:29.757Z,100316.79
2019-03-24T14:41:02.075Z,100306.30
2019-03-24T14:43:34.266Z,100311.39
2019-03-24T14:46:06.535Z,100305.48
2019-03-24T14:48:38.702Z,100298.89
2019-03-24T14:51:10.929Z,100292.61
2019-03-24T14:53:43.151Z,100297.02
2019-03-24T14:56:15.387Z,100277.90
2019-03-24T14:58:47.613Z,100289.56
2019-03-24T15:01:19.823Z,100285.17
2019-03-24T15:03:52.432Z,100275.02
2019-03-24T15:06:25.606Z,100284.48
2019-03-24T15:08:57.832Z,100275.16
2019-03-24T15:11:30.086Z,100279.06
2019-03-24T15:14:04.122Z,100268.58
2019-03-24T15:16:36.354Z,100264.02
2019-03-24T15:19:08.555Z,100264.32
2019-03-24T15:21:40.750Z,100263.66
2019-03-24T15:24:12.971Z,100255.55
2019-03-24T15:26:45.243Z,100255.03
2019-03-24T15:29:17.485Z,100263.84
2019-03-24T15:31:49.699Z,100257.06
2019-03-24T15:34:21.939Z,100238.14
2019-03-24T15:36:54.117Z,100246.91
2019-03-24T15:39:26.354Z,100243.03
2019-03-24T15:41:58.627Z,100238.28
2019-03-24T15:44:30.858Z,100244.55
2019-03-24T15:47:03.101Z,100248.30
2019-03-24T15:49:38.252Z,100237.12
2019-03-24T15:52:10.440Z,100243.03
2019-03-24T15:54:42.747Z,100241.36
2019-03-24T15:57:15.073Z,100240.67
2019-03-24T15:59:47.659Z,100245.58
2019-03-24T16:02:20.016Z,100236.44
2019-03-24T16:04:52.211Z,100238.12
2019-03-24T16:07:24.460Z,100235.25
2019-03-24T16:09:56.689Z,100237.47
2019-03-24T16:12:28.862Z,100235.60
2019-03-24T16:15:02.789Z,100233.06
2019-03-24T16:17:35.009Z,100230.02
2019-03-24T16:20:07.432Z,100233.74
2019-03-24T16:22:39.862Z,100232.38
2019-03-24T16:25:12.031Z,100225.42
2019-03-24T16:27:44.267Z,100230.53
2019-03-24T16:30:16.504Z,100231.86
2019-03-24T16:32:51.698Z,100226.63
2019-03-24T16:35:24.523Z,100233.70
2019-03-24T16:37:56.754Z,100220.48
2019-03-24T16:40:28.949Z,100221.16
2019-03-24T16:43:02.090Z,100218.28
2019-03-24T16:45:34.745Z,100220.84
2019-03-24T16:48:06.941Z,100213.41
2019-03-24T16:50:39.380Z,100217.11
2019-03-24T16:53:11.601Z,100215.09
2019-03-24T16:55:43.821Z,100213.89
2019-03-24T16:58:16.080Z,100210.68
2019-03-24T17:00:48.343Z,100216.26
2019-03-24T17:03:20.605Z,100220.64
2019-03-24T17:05:53.195Z,100225.05
2019-03-24T17:08:25.411Z,100219.62
2019-03-24T17:10:57.664Z,100218.45
2019-03-24T17:13:29.961Z,100219.44
2019-03-24T17:16:04.171Z,100222.47
2019-03-24T17:18:36.383Z,100226.52
2019-03-24T17:21:09.750Z,100223.81
2019-03-24T17:23:42.203Z,100228.87
2019-03-24T17:26:16.047Z,100226.48
2019-03-24T17:28:48.325Z,100228.69
2019-03-24T17:31:22.153Z,100231.03
2019-03-24T17:33:54.440Z,100227.66
2019-03-24T17:36:26.732Z,100229.67
2019-03-24T17:38:59.014Z,100231.34
2019-03-24T17:41:32.390Z,100231.84
2019-03-24T17:44:04.762Z,100228.06
2019-03-24T17:46:38.025Z,100233.45
2019-03-24T17:49:10.327Z,100228.31
2019-03-24T17:51:42.569Z,100228.78
2019-03-24T17:54:14.835Z,100232.95
2019-03-24T17:56:47.157Z,100226.86
2019-03-24T17:59:21.061Z,100231.39
2019-03-24T18:01:53.356Z,100228.62
2019-03-24T18:04:25.906Z,100233.81
2019-03-24T18:06:58.205Z,100229.65
2019-03-24T18:09:30.463Z,100229.23
2019-03-24T18:12:05.967Z,100236.06
2019-03-24T18:14:38.363Z,100234.19
2019-03-24T18:17:10.605Z,100235.20
2019-03-24T18:19:42.859Z,100240.08
2019-03-24T18:22:15.149Z,100234.66
2019-03-24T18:24:48.571Z,100231.91
2019-03-24T18:27:20.836Z,100238.20
2019-03-24T18:29:55.938Z,100236.33
2019-03-24T18:32:28.177Z,100240.52
2019-03-24T18:35:00.413Z,100239.21
2019-03-24T18:37:32.841Z,100243.01
2019-03-24T18:40:06.674Z,100240.52
2019-03-24T18:42:40.824Z,100246.23
2019-03-24T18:45:15.714Z,100248.02
2019-03-24T18:47:48.304Z,100248.58
2019-03-24T18:50:20.862Z,100251.52
2019-03-24T18:52:53.243Z,100252.81
2019-03-24T18:55:25.631Z,100251.52
2019-03-24T18:57:58.043Z,100248.48
2019-03-24T19:00:30.390Z,100250.72
2019-03-24T19:03:02.754Z,100262.23
2019-03-24T19:05:35.393Z,100262.06
2019-03-24T19:08:07.845Z,100264.75
2019-03-24T19:10:40.295Z,100264.45
2019-03-24T19:13:12.619Z,100262.47
2019-03-24T19:15:44.950Z,100267.48
2019-03-24T19:18:17.348Z,100267.56
2019-03-24T19:20:50.173Z,100275.53
2019-03-24T19:23:22.937Z,100279.72
2019-03-24T19:25:55.354Z,100277.73
2019-03-24T19:28:28.143Z,100283.34
2019-03-24T19:31:01.037Z,100286.69
2019-03-24T19:33:33.486Z,100292.05
2019-03-24T19:36:05.832Z,100294.52
2019-03-24T19:38:38.224Z,100289.98
2019-03-24T19:41:10.627Z,100298.30
2019-03-24T19:43:44.760Z,100299.03
2019-03-24T19:46:17.161Z,100301.36
2019-03-24T19:48:51.257Z,100302.34
2019-03-24T19:51:23.744Z,100311.59
2019-03-24T19:53:56.155Z,100309.31
2019-03-24T19:56:28.615Z,100310.86
2019-03-24T19:59:02.516Z,100310.19
2019-03-24T20:01:35.316Z,100310.73
2019-03-24T20:04:07.653Z,100315.20
2019-03-24T20:06:40.036Z,100324.48
2019-03-24T20:09:12.533Z,100318.10
2019-03-24T20:11:45.101Z,100333.94
2019-03-24T20:14:17.465Z,100335.02
2019-03-24T20:16:49.977Z,100341.67
2019-03-24T20:19:24.725Z,100340.87
2019-03-24T20:21:56.801Z,100344.40
2019-03-24T20:24:29.332Z,100355.13
2019-03-24T20:27:02.861Z,100361.12
2019-03-24T20:29:35.400Z,100364.81
2019-03-24T20:32:07.825Z,100365.98
2019-03-24T20:34:40.666Z,100369.70
2019-03-24T20:37:13.153Z,100373.56
2019-03-24T20:39:45.541Z,100372.16
2019-03-24T20:42:17.863Z,100375.25
2019-03-24T20:44:50.251Z,100379.52
2019-03-24T20:47:24.892Z,100379.05
2019-03-24T20:49:58.953Z,100384.02
2019-03-24T20:52:31.880Z,100387.97
2019-03-24T20:55:04.547Z,100389.09
2019-03-24T20:57:36.981Z,100387.45
2019-03-24T21:00:09.949Z,100392.17
2019-03-24T21:02:43.826Z,100392.55
2019-03-24T21:05:16.190Z,100398.58
2019-03-24T21:07:48.621Z,100399.83
2019-03-24T21:10:21.038Z,100401.67
2019-03-24T21:12:57.066Z,100398.14
2019-03-24T21:15:29.510Z,100400.95
2019-03-24T21:18:02.023Z,100401.33
2019-03-24T21:20:34.555Z,100402.43
2019-03-24T21:23:07.062Z,100401.23
2019-03-24T21:25:39.722Z,100409.08
2019-03-24T21:28:12.167Z,100405.48
2019-03-24T21:30:44.619Z,100410.23
2019-03-24T21:33:19.602Z,100407.66
2019-03-24T21:35:53.610Z,100407.20
2019-03-24T21:38:26.155Z,100405.48
2019-03-24T21:40:58.747Z,100403.70
2019-03-24T21:43:31.172Z,100408.27
2019-03-24T21:46:05.267Z,100412.41
2019-03-24T21:48:37.796Z,100415.31
2019-03-24T21:51:10.208Z,100402.00
2019-03-24T21:53:42.628Z,100407.11
2019-03-24T21:56:16.705Z,100415.48
2019-03-24T21:58:49.048Z,100407.77
2019-03-24T22:01:21.968Z,100409.98
2019-03-24T22:03:55.249Z,100409.12
2019-03-24T22:06:27.840Z,100411.56
2019-03-24T22:09:04.467Z,100413.47
2019-03-24T22:11:37.654Z,100419.73
2019-03-24T22:14:10.437Z,100414.49
2019-03-24T22:16:42.860Z,100417.94
2019-03-24T22:19:16.268Z,100415.35
2019-03-24T22:21:48.626Z,100421.23
2019-03-24T22:24:20.999Z,100421.11
2019-03-24T22:26:53.326Z,100416.27
2019-03-24T22:29:25.515Z,100419.73
2019-03-24T22:31:57.776Z,100418.10
2019-03-24T22:34:30.052Z,100422.23
2019-03-24T22:37:15.186Z,100418.52
2019-03-24T22:39:38.270Z,100415.27
2019-03-24T22:42:10.564Z,100423.31
2019-03-24T22:44:42.948Z,100427.56
2019-03-24T22:47:15.218Z,100421.19
2019-03-24T22:49:47.546Z,100424.97
2019-03-24T22:52:19.816Z,100422.38
2019-03-24T22:54:52.120Z,100425.59
2019-03-24T22:57:24.394Z,100420.55
2019-03-24T22:59:56.720Z,100427.56
2019-03-24T23:02:29.096Z,100430.47
2019-03-24T23:05:03.446Z,100433.29
2019-03-24T23:07:36.063Z,100434.31
2019-03-24T23:10:08.332Z,100430.39
2019-03-24T23:12:40.591Z,100432.84
2019-03-24T23:15:12.858Z,100430.81
2019-03-24T23:17:46.974Z,100429.42
2019-03-24T23:20:19.280Z,100436.51
2019-03-24T23:22:51.545Z,100430.23
2019-03-24T23:25:23.853Z,100434.62
2019-03-24T23:27:57.757Z,100434.73
2019-03-24T23:30:30.067Z,100429.12
2019-03-24T23:33:04.181Z,100428.31
2019-03-24T23:35:36.796Z,100427.61
2019-03-24T23:38:09.060Z,100423.84
2019-03-24T23:40:41.319Z,100419.86
2019-03-24T23:43:13.593Z,100420.73
2019-03-24T23:45:45.936Z,100422.16
2019-03-24T23:48:18.226Z,100418.67
2019-03-24T23:50:50.506Z,100418.85
2019-03-24T23:53:22.797Z,100423.63
2019-03-24T23:55:55.090Z,100423.47
2019-03-24T23:58:40.403Z,100431.53
